createdAt,value
2023-04-29T00:03:15.509Z,100891.66
2023-04-29T00:08:18.148Z,100879.41
2023-04-29T00:13:21.987Z,100868.13
2023-04-29T00:18:24.469Z,100865.72
2023-04-29T00:23:26.966Z,100864.03
2023-04-29T00:28:30.805Z,100865.72
2023-04-29T00:33:33.267Z,100865.72
2023-04-29T00:38:35.754Z,100865.13
2023-04-29T00:43:39.591Z,100853.16
2023-04-29T00:48:42.338Z,100854.09
2023-04-29T00:53:45.031Z,100847.00
2023-04-29T00:58:51.726Z,100847.72
2023-04-29T01:03:54.978Z,100848.53
2023-04-29T01:09:11.954Z,100851.34
2023-04-29T01:14:16.500Z,100847.94
2023-04-29T01:19:32.546Z,100835.63
2023-04-29T01:24:36.393Z,100840.78
2023-04-29T01:29:44.980Z,100834.97
2023-04-29T01:34:55.989Z,100836.19
2023-04-29T01:40:09.382Z,100835.56
2023-04-29T01:45:12.756Z,100837.69
2023-04-29T01:50:15.264Z,100829.34
2023-04-29T01:55:20.076Z,100842.03
2023-04-29T02:00:22.788Z,100837.19
2023-04-29T02:05:25.816Z,100832.28
2023-04-29T02:10:29.751Z,100829.75
2023-04-29T02:15:32.225Z,100831.53
2023-04-29T02:20:34.683Z,100835.28
2023-04-29T02:25:38.659Z,100835.19
2023-04-29T02:30:41.464Z,100835.38
2023-04-29T02:35:43.952Z,100834.34
2023-04-29T02:40:48.144Z,100836.19
2023-04-29T02:45:50.713Z,100837.31
2023-04-29T02:50:53.278Z,100841.91
2023-04-29T02:55:57.369Z,100841.09
2023-04-29T03:01:00.002Z,100854.38
2023-04-29T03:06:02.463Z,100853.59
2023-04-29T03:11:06.647Z,100847.75
2023-04-29T03:16:09.869Z,100846.22
2023-04-29T03:21:12.388Z,100852.28
2023-04-29T03:26:16.286Z,100848.72
2023-04-29T03:31:20.870Z,100846.31
2023-04-29T03:36:23.423Z,100854.16
2023-04-29T03:41:27.254Z,100859.72
2023-04-29T03:46:29.852Z,100860.63
2023-04-29T03:51:32.666Z,100867.16
2023-04-29T03:56:36.480Z,100871.59
2023-04-29T04:01:39.028Z,100875.22
2023-04-29T04:06:41.569Z,100878.84
2023-04-29T04:11:45.611Z,100874.00
2023-04-29T04:16:50.572Z,100873.59
2023-04-29T04:21:53.200Z,100883.34
2023-04-29T04:26:57.000Z,100893.00
2023-04-29T04:31:59.495Z,100894.00
2023-04-29T04:37:02.062Z,100900.47
2023-04-29T04:42:05.945Z,100898.22
2023-04-29T04:47:08.437Z,100915.66
2023-04-29T04:52:11.583Z,100914.88
2023-04-29T04:57:16.461Z,100924.63
2023-04-29T05:02:19.179Z,100922.09
2023-04-29T05:07:21.720Z,100925.66
2023-04-29T05:12:30.480Z,100936.31
2023-04-29T05:17:34.541Z,100947.09
2023-04-29T05:22:37.110Z,100946.19
2023-04-29T05:27:41.158Z,100943.72
2023-04-29T05:32:45.310Z,100955.00
2023-04-29T05:37:47.826Z,100961.84
2023-04-29T05:42:51.944Z,100965.38
2023-04-29T05:47:54.458Z,100964.88
2023-04-29T05:52:57.394Z,100972.13
2023-04-29T05:58:01.244Z,100986.63
2023-04-29T06:03:03.882Z,100989.66
2023-04-29T06:08:07.307Z,101000.16
2023-04-29T06:13:11.258Z,101012.34
2023-04-29T06:18:13.900Z,101030.31
2023-04-29T06:23:16.403Z,101029.19
2023-04-29T06:28:20.484Z,101035.44
2023-04-29T06:33:22.955Z,101040.09
2023-04-29T06:38:25.433Z,101037.66
2023-04-29T06:43:29.242Z,101045.81
2023-04-29T06:48:31.732Z,101052.66
2023-04-29T06:53:34.208Z,101062.22
2023-04-29T06:58:38.375Z,101059.13
2023-04-29T07:03:41.035Z,101056.72
2023-04-29T07:08:43.698Z,101063.16
2023-04-29T07:13:47.507Z,101061.56
2023-04-29T07:18:50.098Z,101064.59
2023-04-29T07:23:52.567Z,101074.13
2023-04-29T07:28:56.365Z,101078.72
2023-04-29T07:33:58.834Z,101082.53
2023-04-29T07:39:01.316Z,101084.75
2023-04-29T07:44:05.524Z,101096.28
2023-04-29T07:49:07.999Z,101092.97
2023-04-29T07:54:10.889Z,101105.75
2023-04-29T07:59:14.878Z,101107.28
2023-04-29T08:04:17.639Z,101109.28
2023-04-29T08:09:20.493Z,101107.56
2023-04-29T08:14:24.447Z,101103.94
2023-04-29T08:19:26.941Z,101127.53
2023-04-29T08:24:29.706Z,101128.16
2023-04-29T08:29:34.304Z,101137.03
2023-04-29T08:34:37.570Z,101141.44
2023-04-29T08:39:40.057Z,101148.25
2023-04-29T08:44:44.483Z,101154.41
2023-04-29T08:49:46.989Z,101167.88
2023-04-29T08:54:49.500Z,101166.84
2023-04-29T08:59:53.469Z,101168.91
2023-04-29T09:05:06.078Z,101176.56
2023-04-29T09:10:09.565Z,101179.97
2023-04-29T09:15:13.557Z,101186.16
2023-04-29T09:20:27.950Z,101197.72
2023-04-29T09:25:31.245Z,101203.22
2023-04-29T09:30:47.037Z,101199.75
2023-04-29T09:35:49.876Z,101210.13
2023-04-29T09:40:59.607Z,101216.47
2023-04-29T09:46:04.071Z,101206.75
2023-04-29T09:51:07.072Z,101220.50
2023-04-29T09:56:09.586Z,101223.28
2023-04-29T10:01:14.342Z,101223.84
2023-04-29T10:06:18.247Z,101228.31
2023-04-29T10:11:21.581Z,101234.19
2023-04-29T10:16:30.116Z,101243.47
2023-04-29T10:21:33.089Z,101248.13
2023-04-29T10:26:39.529Z,101264.47
2023-04-29T10:31:44.555Z,101262.41
2023-04-29T10:36:48.140Z,101265.28
2023-04-29T10:41:52.428Z,101256.47
2023-04-29T10:47:20.878Z,101257.97
2023-04-29T10:52:23.373Z,101269.22
2023-04-29T10:57:26.935Z,101266.19
2023-04-29T11:02:30.800Z,101259.72
2023-04-29T11:07:33.337Z,101279.13
2023-04-29T11:12:35.835Z,101271.47
2023-04-29T11:17:41.178Z,101270.25
2023-04-29T11:22:52.132Z,101269.94
2023-04-29T11:27:56.749Z,101273.09
2023-04-29T11:33:01.145Z,101287.88
2023-04-29T11:38:05.742Z,101285.03
2023-04-29T11:43:08.218Z,101295.47
2023-04-29T11:48:19.155Z,101299.06
2023-04-29T11:53:22.849Z,101297.41
2023-04-29T11:58:25.674Z,101298.34
2023-04-29T12:03:29.715Z,101296.88
2023-04-29T12:08:33.995Z,101306.97
2023-04-29T12:13:36.928Z,101312.72
2023-04-29T12:18:41.050Z,101307.66
2023-04-29T12:23:43.939Z,101314.91
2023-04-29T12:28:46.509Z,101306.19
2023-04-29T12:33:50.373Z,101308.47
2023-04-29T12:38:54.575Z,101313.63
2023-04-29T12:43:57.588Z,101315.06
2023-04-29T12:49:03.174Z,101323.66
2023-04-29T12:54:07.224Z,101322.94
2023-04-29T12:59:11.766Z,101325.97
2023-04-29T13:04:15.818Z,101321.31
2023-04-29T13:09:19.157Z,101316.47
2023-04-29T13:14:22.163Z,101312.75
2023-04-29T13:19:43.294Z,101319.59
2023-04-29T13:24:48.534Z,101315.63
2023-04-29T13:29:51.192Z,101324.31
2023-04-29T13:34:55.593Z,101339.69
2023-04-29T13:39:58.146Z,101337.44
2023-04-29T13:45:00.781Z,101341.84
2023-04-29T14:00:38.158Z,101343.28
2023-04-29T14:05:42.484Z,101344.66
2023-04-29T14:10:45.068Z,101350.63
2023-04-29T14:15:47.643Z,101343.91
2023-04-29T14:20:51.584Z,101341.50
2023-04-29T14:25:58.899Z,101349.78
2023-04-29T14:31:09.039Z,101352.38
2023-04-29T14:36:12.876Z,101348.44
2023-04-29T14:41:15.894Z,101357.59
2023-04-29T14:46:18.502Z,101358.38
2023-04-29T14:51:22.373Z,101357.00
2023-04-29T14:56:24.868Z,101359.94
2023-04-29T15:01:28.679Z,101365.19
2023-04-29T15:06:34.287Z,101364.53
2023-04-29T15:11:36.806Z,101365.56
2023-04-29T15:16:39.451Z,101376.81
2023-04-29T15:21:43.304Z,101366.09
2023-04-29T15:26:46.485Z,101382.50
2023-04-29T15:31:49.043Z,101379.72
2023-04-29T15:36:53.018Z,101387.50
2023-04-29T15:41:55.513Z,101384.25
2023-04-29T15:46:58.016Z,101386.44
2023-04-29T15:52:02.496Z,101401.47
2023-04-29T15:57:05.298Z,101405.03
2023-04-29T16:02:10.703Z,101409.72
2023-04-29T16:07:14.876Z,101408.50
2023-04-29T16:12:17.390Z,101402.44
2023-04-29T16:17:20.453Z,101403.38
2023-04-29T16:22:24.449Z,101414.22
2023-04-29T16:27:29.815Z,101407.28
2023-04-29T16:32:33.468Z,101419.47
2023-04-29T16:37:37.473Z,101411.53
2023-04-29T16:42:39.943Z,101419.81
2023-04-29T16:47:42.970Z,101432.28
2023-04-29T16:52:46.975Z,101417.94
2023-04-29T16:57:49.459Z,101431.31
2023-04-29T17:02:52.845Z,101445.94
2023-04-29T17:07:56.856Z,101449.88
2023-04-29T17:12:59.407Z,101448.69
2023-04-29T17:18:01.936Z,101448.00
2023-04-29T17:23:06.296Z,101462.38
2023-04-29T17:28:08.782Z,101462.09
2023-04-29T17:33:13.259Z,101468.19
2023-04-29T17:38:17.667Z,101474.50
2023-04-29T17:43:20.136Z,101485.16
2023-04-29T17:48:22.694Z,101490.00
2023-04-29T17:53:28.446Z,101482.66
2023-04-29T17:58:30.952Z,101483.28
2023-04-29T18:03:33.541Z,101485.09
2023-04-29T18:08:37.414Z,101498.97
2023-04-29T18:13:40.224Z,101494.94
2023-04-29T18:18:43.123Z,101499.75
2023-04-29T18:23:47.629Z,101507.69
2023-04-29T18:28:50.622Z,101510.53
2023-04-29T18:33:53.136Z,101529.78
2023-04-29T18:38:57.039Z,101535.06
2023-04-29T18:43:59.624Z,101535.91
2023-04-29T18:49:02.097Z,101540.28
2023-04-29T18:54:06.152Z,101541.28
2023-04-29T18:59:10.078Z,101568.28
2023-04-29T19:04:12.656Z,101573.00
2023-04-29T19:09:16.504Z,101572.19
2023-04-29T19:14:19.289Z,101574.88
2023-04-29T19:19:21.823Z,101590.56
2023-04-29T19:24:25.782Z,101605.34
2023-04-29T19:29:28.271Z,101597.50
2023-04-29T19:34:30.855Z,101606.09
2023-04-29T19:39:34.702Z,101615.13
2023-04-29T19:44:37.202Z,101611.84
2023-04-29T19:49:39.790Z,101614.59
2023-04-29T19:54:43.624Z,101628.97
2023-04-29T19:59:46.224Z,101636.09
2023-04-29T20:04:49.135Z,101637.59
2023-04-29T20:09:53.213Z,101629.84
2023-04-29T20:14:56.316Z,101643.88
2023-04-29T20:19:59.047Z,101648.66
2023-04-29T20:25:03.049Z,101662.13
2023-04-29T20:30:06.819Z,101659.56
2023-04-29T20:35:09.353Z,101673.72
2023-04-29T20:40:13.873Z,101687.28
2023-04-29T20:45:16.659Z,101694.78
2023-04-29T20:50:19.205Z,101693.38
2023-04-29T20:55:23.330Z,101694.59
2023-04-29T21:00:25.856Z,101693.34
2023-04-29T21:05:28.354Z,101716.19
2023-04-29T21:10:32.278Z,101716.03
2023-04-29T21:15:34.821Z,101717.81
2023-04-29T21:20:37.352Z,101724.16
2023-04-29T21:25:41.179Z,101725.78
2023-04-29T21:30:43.673Z,101733.66
2023-04-29T21:35:49.754Z,101730.81
2023-04-29T21:40:54.144Z,101730.22
2023-04-29T21:45:56.649Z,101742.66
2023-04-29T21:50:59.933Z,101762.06
2023-04-29T21:56:03.933Z,101758.00
2023-04-29T22:01:25.852Z,101760.38
2023-04-29T22:06:28.480Z,101756.31
2023-04-29T22:11:32.369Z,101758.69
2023-04-29T22:16:35.894Z,101766.91
2023-04-29T22:21:40.712Z,101777.78
2023-04-29T22:26:44.502Z,101782.75
2023-04-29T22:31:47.298Z,101790.72
2023-04-29T22:36:49.804Z,101790.88
2023-04-29T22:41:53.647Z,101789.28
2023-04-29T22:46:56.105Z,101793.09
2023-04-29T22:51:58.611Z,101788.63
2023-04-29T22:57:03.511Z,101788.25
2023-04-29T23:02:06.003Z,101791.88
2023-04-29T23:07:08.500Z,101801.81
2023-04-29T23:12:12.303Z,101807.09
2023-04-29T23:17:14.805Z,101811.16
2023-04-29T23:22:17.698Z,101815.34
2023-04-29T23:27:21.654Z,101810.63
2023-04-29T23:32:24.847Z,101813.75
2023-04-29T23:37:27.442Z,101807.47
2023-04-29T23:42:31.414Z,101812.16
2023-04-29T23:47:33.953Z,101818.00
2023-04-29T23:52:36.447Z,101816.69
2023-04-29T23:57:40.340Z,101821.38
